sensor_id;sensor_type;location;lat;lon;timestamp;P1;durP1;ratioP1;P2;durP2;ratioP2
21243;SDS011;10780;50.942;4.028;2023-06-14T00:00:32;12.25;;;8.55;;
21243;SDS011;10780;50.942;4.028;2023-06-14T00:02:59;11.23;;;8.88;;
21243;SDS011;10780;50.942;4.028;2023-06-14T00:05:25;9.98;;;8.00;;
21243;SDS011;10780;50.942;4.028;2023-06-14T00:07:51;10.95;;;8.57;;
21243;SDS011;10780;50.942;4.028;2023-06-14T00:10:18;9.75;;;8.38;;
21243;SDS011;10780;50.942;4.028;2023-06-14T00:12:44;9.38;;;8.40;;
21243;SDS011;10780;50.942;4.028;2023-06-14T00:15:10;9.60;;;8.60;;
21243;SDS011;10780;50.942;4.028;2023-06-14T00:17:36;9.25;;;8.20;;
21243;SDS011;10780;50.942;4.028;2023-06-14T00:20:04;10.55;;;8.60;;
21243;SDS011;10780;50.942;4.028;2023-06-14T00:22:33;13.02;;;9.07;;
21243;SDS011;10780;50.942;4.028;2023-06-14T00:24:59;11.55;;;9.20;;
21243;SDS011;10780;50.942;4.028;2023-06-14T00:27:25;13.30;;;8.85;;
21243;SDS011;10780;50.942;4.028;2023-06-14T00:29:50;13.23;;;9.27;;
21243;SDS011;10780;50.942;4.028;2023-06-14T00:32:17;13.07;;;9.02;;
21243;SDS011;10780;50.942;4.028;2023-06-14T00:34:43;14.57;;;10.05;;
21243;SDS011;10780;50.942;4.028;2023-06-14T00:37:09;10.45;;;9.20;;
21243;SDS011;10780;50.942;4.028;2023-06-14T00:39:34;12.63;;;9.05;;
21243;SDS011;10780;50.942;4.028;2023-06-14T00:42:00;17.38;;;9.60;;
21243;SDS011;10780;50.942;4.028;2023-06-14T00:44:26;13.20;;;9.48;;
21243;SDS011;10780;50.942;4.028;2023-06-14T00:46:51;13.18;;;9.82;;
21243;SDS011;10780;50.942;4.028;2023-06-14T00:49:17;14.80;;;10.18;;
21243;SDS011;10780;50.942;4.028;2023-06-14T00:51:44;12.30;;;9.55;;
21243;SDS011;10780;50.942;4.028;2023-06-14T00:54:10;14.55;;;9.90;;
21243;SDS011;10780;50.942;4.028;2023-06-14T00:56:36;16.15;;;10.07;;
21243;SDS011;10780;50.942;4.028;2023-06-14T00:59:02;12.25;;;9.65;;
21243;SDS011;10780;50.942;4.028;2023-06-14T01:01:28;12.77;;;9.38;;
21243;SDS011;10780;50.942;4.028;2023-06-14T01:03:58;12.68;;;10.05;;
21243;SDS011;10780;50.942;4.028;2023-06-14T01:09:23;12.30;;;9.23;;
21243;SDS011;10780;50.942;4.028;2023-06-14T01:11:54;10.88;;;9.73;;
21243;SDS011;10780;50.942;4.028;2023-06-14T01:14:35;12.98;;;10.52;;
21243;SDS011;10780;50.942;4.028;2023-06-14T01:17:02;11.20;;;9.82;;
21243;SDS011;10780;50.942;4.028;2023-06-14T01:19:29;14.55;;;9.50;;
21243;SDS011;10780;50.942;4.028;2023-06-14T01:21:56;13.55;;;9.35;;
21243;SDS011;10780;50.942;4.028;2023-06-14T01:24:24;11.10;;;9.25;;
21243;SDS011;10780;50.942;4.028;2023-06-14T01:26:51;10.82;;;9.63;;
21243;SDS011;10780;50.942;4.028;2023-06-14T01:29:21;14.25;;;10.07;;
21243;SDS011;10780;50.942;4.028;2023-06-14T01:31:49;12.65;;;9.75;;
21243;SDS011;10780;50.942;4.028;2023-06-14T01:34:15;13.52;;;9.98;;
21243;SDS011;10780;50.942;4.028;2023-06-14T01:36:41;12.82;;;9.80;;
21243;SDS011;10780;50.942;4.028;2023-06-14T01:39:10;11.13;;;9.73;;
21243;SDS011;10780;50.942;4.028;2023-06-14T01:41:38;12.27;;;9.93;;
21243;SDS011;10780;50.942;4.028;2023-06-14T01:44:05;11.38;;;9.45;;
21243;SDS011;10780;50.942;4.028;2023-06-14T01:46:31;11.45;;;9.98;;
21243;SDS011;10780;50.942;4.028;2023-06-14T01:48:58;13.80;;;9.73;;
21243;SDS011;10780;50.942;4.028;2023-06-14T01:51:25;14.10;;;10.43;;
21243;SDS011;10780;50.942;4.028;2023-06-14T01:53:50;11.40;;;9.73;;
21243;SDS011;10780;50.942;4.028;2023-06-14T01:56:16;11.07;;;9.90;;
21243;SDS011;10780;50.942;4.028;2023-06-14T01:58:42;14.30;;;10.20;;
21243;SDS011;10780;50.942;4.028;2023-06-14T02:01:08;11.85;;;10.45;;
21243;SDS011;10780;50.942;4.028;2023-06-14T02:03:34;13.90;;;10.00;;
21243;SDS011;10780;50.942;4.028;2023-06-14T02:05:59;12.60;;;9.68;;
21243;SDS011;10780;50.942;4.028;2023-06-14T02:08:25;13.32;;;9.90;;
21243;SDS011;10780;50.942;4.028;2023-06-14T02:10:51;17.63;;;10.63;;
21243;SDS011;10780;50.942;4.028;2023-06-14T02:13:17;13.60;;;10.52;;
21243;SDS011;10780;50.942;4.028;2023-06-14T02:15:42;13.82;;;10.43;;
21243;SDS011;10780;50.942;4.028;2023-06-14T02:18:09;13.73;;;10.27;;
21243;SDS011;10780;50.942;4.028;2023-06-14T02:20:35;12.18;;;10.90;;
21243;SDS011;10780;50.942;4.028;2023-06-14T02:23:01;14.45;;;10.73;;
21243;SDS011;10780;50.942;4.028;2023-06-14T02:25:26;14.43;;;10.63;;
21243;SDS011;10780;50.942;4.028;2023-06-14T02:27:55;14.20;;;10.27;;
21243;SDS011;10780;50.942;4.028;2023-06-14T02:30:21;13.48;;;9.70;;
21243;SDS011;10780;50.942;4.028;2023-06-14T02:32:47;11.68;;;9.80;;
21243;SDS011;10780;50.942;4.028;2023-06-14T02:35:13;13.57;;;9.98;;
21243;SDS011;10780;50.942;4.028;2023-06-14T02:37:39;11.98;;;10.43;;
21243;SDS011;10780;50.942;4.028;2023-06-14T02:40:05;14.35;;;10.98;;
21243;SDS011;10780;50.942;4.028;2023-06-14T02:42:31;13.60;;;10.38;;
21243;SDS011;10780;50.942;4.028;2023-06-14T02:44:57;13.52;;;10.48;;
21243;SDS011;10780;50.942;4.028;2023-06-14T02:47:22;11.07;;;9.98;;
21243;SDS011;10780;50.942;4.028;2023-06-14T02:49:49;13.80;;;11.50;;
21243;SDS011;10780;50.942;4.028;2023-06-14T02:52:15;13.52;;;10.98;;
21243;SDS011;10780;50.942;4.028;2023-06-14T02:54:41;15.95;;;11.35;;
21243;SDS011;10780;50.942;4.028;2023-06-14T02:57:07;12.85;;;11.25;;
21243;SDS011;10780;50.942;4.028;2023-06-14T02:59:33;14.07;;;11.20;;
21243;SDS011;10780;50.942;4.028;2023-06-14T03:02:00;15.18;;;11.23;;
21243;SDS011;10780;50.942;4.028;2023-06-14T03:04:26;11.45;;;10.32;;
21243;SDS011;10780;50.942;4.028;2023-06-14T03:06:52;13.82;;;11.10;;
21243;SDS011;10780;50.942;4.028;2023-06-14T03:09:18;12.82;;;11.27;;
21243;SDS011;10780;50.942;4.028;2023-06-14T03:11:44;12.90;;;11.07;;
21243;SDS011;10780;50.942;4.028;2023-06-14T03:14:10;16.52;;;11.55;;
21243;SDS011;10780;50.942;4.028;2023-06-14T03:16:36;15.48;;;11.50;;
21243;SDS011;10780;50.942;4.028;2023-06-14T03:19:02;13.93;;;11.18;;
21243;SDS011;10780;50.942;4.028;2023-06-14T03:21:28;16.40;;;12.00;;
21243;SDS011;10780;50.942;4.028;2023-06-14T03:23:53;18.85;;;12.48;;
21243;SDS011;10780;50.942;4.028;2023-06-14T03:26:19;15.50;;;11.45;;
21243;SDS011;10780;50.942;4.028;2023-06-14T03:28:45;17.13;;;11.75;;
21243;SDS011;10780;50.942;4.028;2023-06-14T03:31:12;16.08;;;11.48;;
21243;SDS011;10780;50.942;4.028;2023-06-14T03:33:38;12.82;;;11.35;;
21243;SDS011;10780;50.942;4.028;2023-06-14T03:36:04;13.88;;;11.10;;
21243;SDS011;10780;50.942;4.028;2023-06-14T03:38:30;13.25;;;11.13;;
21243;SDS011;10780;50.942;4.028;2023-06-14T03:40:56;15.20;;;11.15;;
21243;SDS011;10780;50.942;4.028;2023-06-14T03:43:22;14.57;;;11.30;;
21243;SDS011;10780;50.942;4.028;2023-06-14T03:45:47;13.10;;;10.32;;
21243;SDS011;10780;50.942;4.028;2023-06-14T03:48:13;12.48;;;10.13;;
21243;SDS011;10780;50.942;4.028;2023-06-14T03:50:38;13.30;;;10.50;;
21243;SDS011;10780;50.942;4.028;2023-06-14T03:53:05;12.85;;;11.00;;
21243;SDS011;10780;50.942;4.028;2023-06-14T03:55:31;12.38;;;10.80;;
21243;SDS011;10780;50.942;4.028;2023-06-14T03:57:58;11.68;;;10.48;;
21243;SDS011;10780;50.942;4.028;2023-06-14T04:00:24;11.95;;;10.45;;
21243;SDS011;10780;50.942;4.028;2023-06-14T04:02:49;11.52;;;10.27;;
21243;SDS011;10780;50.942;4.028;2023-06-14T04:05:15;13.68;;;10.20;;
21243;SDS011;10780;50.942;4.028;2023-06-14T04:07:44;14.50;;;10.20;;
21243;SDS011;10780;50.942;4.028;2023-06-14T04:10:11;14.20;;;10.45;;
21243;SDS011;10780;50.942;4.028;2023-06-14T04:12:38;14.65;;;10.45;;
21243;SDS011;10780;50.942;4.028;2023-06-14T04:15:04;14.48;;;10.35;;
21243;SDS011;10780;50.942;4.028;2023-06-14T04:17:33;13.27;;;9.85;;
21243;SDS011;10780;50.942;4.028;2023-06-14T04:19:59;12.05;;;9.48;;
21243;SDS011;10780;50.942;4.028;2023-06-14T04:22:26;11.93;;;10.18;;
21243;SDS011;10780;50.942;4.028;2023-06-14T04:24:55;12.57;;;9.27;;
21243;SDS011;10780;50.942;4.028;2023-06-14T04:27:24;10.60;;;9.40;;
21243;SDS011;10780;50.942;4.028;2023-06-14T04:29:54;14.88;;;10.50;;
21243;SDS011;10780;50.942;4.028;2023-06-14T04:32:24;14.25;;;9.88;;
21243;SDS011;10780;50.942;4.028;2023-06-14T04:34:52;11.45;;;9.63;;
21243;SDS011;10780;50.942;4.028;2023-06-14T04:37:19;11.32;;;9.80;;
21243;SDS011;10780;50.942;4.028;2023-06-14T04:39:46;10.95;;;9.75;;
21243;SDS011;10780;50.942;4.028;2023-06-14T04:42:12;11.75;;;9.63;;
21243;SDS011;10780;50.942;4.028;2023-06-14T04:44:39;11.57;;;9.95;;
21243;SDS011;10780;50.942;4.028;2023-06-14T04:47:06;14.63;;;10.13;;
21243;SDS011;10780;50.942;4.028;2023-06-14T04:49:31;10.02;;;9.02;;
21243;SDS011;10780;50.942;4.028;2023-06-14T04:51:59;11.40;;;9.25;;
21243;SDS011;10780;50.942;4.028;2023-06-14T04:54:26;12.40;;;9.70;;
21243;SDS011;10780;50.942;4.028;2023-06-14T04:56:52;11.07;;;9.38;;
21243;SDS011;10780;50.942;4.028;2023-06-14T04:59:20;10.95;;;9.20;;
21243;SDS011;10780;50.942;4.028;2023-06-14T05:01:48;12.35;;;9.40;;
21243;SDS011;10780;50.942;4.028;2023-06-14T05:04:15;12.68;;;10.32;;
21243;SDS011;10780;50.942;4.028;2023-06-14T05:06:41;11.00;;;9.10;;
21243;SDS011;10780;50.942;4.028;2023-06-14T05:09:10;11.68;;;9.80;;
21243;SDS011;10780;50.942;4.028;2023-06-14T05:11:39;11.25;;;9.40;;
21243;SDS011;10780;50.942;4.028;2023-06-14T05:14:05;13.38;;;9.95;;
21243;SDS011;10780;50.942;4.028;2023-06-14T05:16:31;13.50;;;9.23;;
21243;SDS011;10780;50.942;4.028;2023-06-14T05:18:57;13.13;;;9.60;;
21243;SDS011;10780;50.942;4.028;2023-06-14T05:21:23;12.88;;;9.35;;
21243;SDS011;10780;50.942;4.028;2023-06-14T05:23:48;10.60;;;9.18;;
21243;SDS011;10780;50.942;4.028;2023-06-14T05:26:15;12.85;;;9.88;;
21243;SDS011;10780;50.942;4.028;2023-06-14T05:28:41;11.05;;;9.30;;
21243;SDS011;10780;50.942;4.028;2023-06-14T05:31:07;10.70;;;9.48;;
21243;SDS011;10780;50.942;4.028;2023-06-14T05:33:32;11.13;;;8.95;;
21243;SDS011;10780;50.942;4.028;2023-06-14T05:35:58;13.68;;;9.00;;
21243;SDS011;10780;50.942;4.028;2023-06-14T05:38:23;12.88;;;9.10;;
21243;SDS011;10780;50.942;4.028;2023-06-14T05:40:50;12.52;;;9.35;;
21243;SDS011;10780;50.942;4.028;2023-06-14T05:43:16;11.20;;;9.27;;
21243;SDS011;10780;50.942;4.028;2023-06-14T05:45:41;11.80;;;8.77;;
21243;SDS011;10780;50.942;4.028;2023-06-14T05:48:07;12.63;;;9.05;;
21243;SDS011;10780;50.942;4.028;2023-06-14T05:50:32;12.27;;;9.65;;
21243;SDS011;10780;50.942;4.028;2023-06-14T05:52:58;13.10;;;10.10;;
21243;SDS011;10780;50.942;4.028;2023-06-14T05:55:24;13.60;;;10.18;;
21243;SDS011;10780;50.942;4.028;2023-06-14T05:57:50;11.98;;;10.10;;
21243;SDS011;10780;50.942;4.028;2023-06-14T06:00:15;14.73;;;10.07;;
21243;SDS011;10780;50.942;4.028;2023-06-14T06:02:42;15.55;;;9.98;;
21243;SDS011;10780;50.942;4.028;2023-06-14T06:05:12;11.07;;;9.77;;
21243;SDS011;10780;50.942;4.028;2023-06-14T06:07:38;12.77;;;10.13;;
21243;SDS011;10780;50.942;4.028;2023-06-14T06:10:09;13.93;;;11.00;;
21243;SDS011;10780;50.942;4.028;2023-06-14T06:12:35;16.20;;;11.00;;
21243;SDS011;10780;50.942;4.028;2023-06-14T06:15:01;12.60;;;10.63;;
21243;SDS011;10780;50.942;4.028;2023-06-14T06:17:29;14.30;;;10.30;;
21243;SDS011;10780;50.942;4.028;2023-06-14T06:19:55;13.63;;;10.07;;
21243;SDS011;10780;50.942;4.028;2023-06-14T06:22:20;13.55;;;10.50;;
21243;SDS011;10780;50.942;4.028;2023-06-14T06:24:47;14.25;;;10.70;;
21243;SDS011;10780;50.942;4.028;2023-06-14T06:27:13;16.33;;;10.65;;
21243;SDS011;10780;50.942;4.028;2023-06-14T06:29:39;12.35;;;9.80;;
21243;SDS011;10780;50.942;4.028;2023-06-14T06:32:07;10.85;;;9.25;;
21243;SDS011;10780;50.942;4.028;2023-06-14T06:34:33;12.50;;;9.85;;
21243;SDS011;10780;50.942;4.028;2023-06-14T06:36:59;12.60;;;10.52;;
21243;SDS011;10780;50.942;4.028;2023-06-14T06:39:26;10.98;;;9.68;;
21243;SDS011;10780;50.942;4.028;2023-06-14T06:41:52;11.32;;;10.23;;
21243;SDS011;10780;50.942;4.028;2023-06-14T06:44:18;16.65;;;10.40;;
21243;SDS011;10780;50.942;4.028;2023-06-14T06:46:44;13.80;;;10.27;;
21243;SDS011;10780;50.942;4.028;2023-06-14T06:49:10;12.90;;;9.75;;
21243;SDS011;10780;50.942;4.028;2023-06-14T06:51:37;13.70;;;9.48;;
21243;SDS011;10780;50.942;4.028;2023-06-14T06:54:07;14.15;;;9.95;;
21243;SDS011;10780;50.942;4.028;2023-06-14T06:56:33;12.80;;;11.10;;
21243;SDS011;10780;50.942;4.028;2023-06-14T06:59:00;11.98;;;10.13;;
21243;SDS011;10780;50.942;4.028;2023-06-14T07:01:26;12.02;;;10.82;;
21243;SDS011;10780;50.942;4.028;2023-06-14T07:03:54;16.27;;;10.98;;
21243;SDS011;10780;50.942;4.028;2023-06-14T07:06:20;13.35;;;9.93;;
21243;SDS011;10780;50.942;4.028;2023-06-14T07:08:46;14.07;;;10.77;;
21243;SDS011;10780;50.942;4.028;2023-06-14T07:11:15;13.77;;;9.90;;
21243;SDS011;10780;50.942;4.028;2023-06-14T07:13:41;16.35;;;10.10;;
21243;SDS011;10780;50.942;4.028;2023-06-14T07:16:07;17.35;;;10.10;;
21243;SDS011;10780;50.942;4.028;2023-06-14T07:18:32;14.30;;;10.13;;
21243;SDS011;10780;50.942;4.028;2023-06-14T07:20:58;12.80;;;10.00;;
21243;SDS011;10780;50.942;4.028;2023-06-14T07:23:24;11.65;;;10.07;;
21243;SDS011;10780;50.942;4.028;2023-06-14T07:25:50;13.48;;;9.32;;
21243;SDS011;10780;50.942;4.028;2023-06-14T07:28:16;11.13;;;9.05;;
21243;SDS011;10780;50.942;4.028;2023-06-14T07:30:43;11.32;;;10.05;;
21243;SDS011;10780;50.942;4.028;2023-06-14T07:33:09;10.75;;;9.65;;
21243;SDS011;10780;50.942;4.028;2023-06-14T07:35:37;10.20;;;9.13;;
21243;SDS011;10780;50.942;4.028;2023-06-14T07:38:02;11.88;;;9.23;;
21243;SDS011;10780;50.942;4.028;2023-06-14T07:40:28;9.98;;;8.98;;
21243;SDS011;10780;50.942;4.028;2023-06-14T07:42:54;10.48;;;8.60;;
21243;SDS011;10780;50.942;4.028;2023-06-14T07:45:20;14.15;;;9.48;;
21243;SDS011;10780;50.942;4.028;2023-06-14T07:47:45;10.85;;;9.68;;
21243;SDS011;10780;50.942;4.028;2023-06-14T07:50:11;15.10;;;9.77;;
21243;SDS011;10780;50.942;4.028;2023-06-14T07:52:38;12.48;;;9.15;;
21243;SDS011;10780;50.942;4.028;2023-06-14T07:55:04;9.20;;;8.30;;
21243;SDS011;10780;50.942;4.028;2023-06-14T07:57:30;11.30;;;8.65;;
21243;SDS011;10780;50.942;4.028;2023-06-14T07:59:56;14.68;;;9.95;;
21243;SDS011;10780;50.942;4.028;2023-06-14T08:02:22;9.50;;;8.40;;
21243;SDS011;10780;50.942;4.028;2023-06-14T08:04:48;11.38;;;9.20;;
21243;SDS011;10780;50.942;4.028;2023-06-14T08:07:14;9.65;;;8.75;;
21243;SDS011;10780;50.942;4.028;2023-06-14T08:09:40;13.30;;;9.30;;
21243;SDS011;10780;50.942;4.028;2023-06-14T08:12:06;11.70;;;8.82;;
21243;SDS011;10780;50.942;4.028;2023-06-14T08:14:35;14.73;;;10.02;;
21243;SDS011;10780;50.942;4.028;2023-06-14T08:17:01;11.27;;;9.65;;
21243;SDS011;10780;50.942;4.028;2023-06-14T08:19:28;9.50;;;8.45;;
21243;SDS011;10780;50.942;4.028;2023-06-14T08:21:55;16.23;;;9.23;;
21243;SDS011;10780;50.942;4.028;2023-06-14T08:24:21;13.43;;;8.45;;
21243;SDS011;10780;50.942;4.028;2023-06-14T08:26:49;10.38;;;8.65;;
21243;SDS011;10780;50.942;4.028;2023-06-14T08:29:15;11.15;;;8.48;;
21243;SDS011;10780;50.942;4.028;2023-06-14T08:31:41;9.73;;;8.60;;
21243;SDS011;10780;50.942;4.028;2023-06-14T08:34:06;12.77;;;9.13;;
21243;SDS011;10780;50.942;4.028;2023-06-14T08:36:32;14.57;;;8.43;;
21243;SDS011;10780;50.942;4.028;2023-06-14T08:38:58;12.35;;;8.98;;
21243;SDS011;10780;50.942;4.028;2023-06-14T08:41:23;15.82;;;8.30;;
21243;SDS011;10780;50.942;4.028;2023-06-14T08:43:50;9.27;;;8.27;;
21243;SDS011;10780;50.942;4.028;2023-06-14T08:46:17;9.75;;;8.13;;
21243;SDS011;10780;50.942;4.028;2023-06-14T08:48:46;12.77;;;8.13;;
21243;SDS011;10780;50.942;4.028;2023-06-14T08:51:15;11.43;;;8.15;;
21243;SDS011;10780;50.942;4.028;2023-06-14T08:53:44;9.95;;;7.70;;
21243;SDS011;10780;50.942;4.028;2023-06-14T08:56:10;10.65;;;8.77;;
21243;SDS011;10780;50.942;4.028;2023-06-14T08:58:43;8.95;;;7.90;;
21243;SDS011;10780;50.942;4.028;2023-06-14T09:01:10;11.70;;;8.95;;
21243;SDS011;10780;50.942;4.028;2023-06-14T09:03:41;8.95;;;8.05;;
21243;SDS011;10780;50.942;4.028;2023-06-14T09:06:08;8.77;;;7.88;;
21243;SDS011;10780;50.942;4.028;2023-06-14T09:08:38;12.93;;;8.68;;
21243;SDS011;10780;50.942;4.028;2023-06-14T09:11:13;15.55;;;8.70;;
21243;SDS011;10780;50.942;4.028;2023-06-14T09:13:41;12.60;;;8.75;;
21243;SDS011;10780;50.942;4.028;2023-06-14T09:16:07;12.30;;;8.23;;
21243;SDS011;10780;50.942;4.028;2023-06-14T09:18:43;14.27;;;8.15;;
21243;SDS011;10780;50.942;4.028;2023-06-14T09:21:12;9.85;;;8.00;;
21243;SDS011;10780;50.942;4.028;2023-06-14T09:23:39;10.07;;;7.95;;
21243;SDS011;10780;50.942;4.028;2023-06-14T09:26:07;13.60;;;7.68;;
21243;SDS011;10780;50.942;4.028;2023-06-14T09:28:45;11.05;;;8.55;;
21243;SDS011;10780;50.942;4.028;2023-06-14T09:31:13;15.43;;;8.23;;
21243;SDS011;10780;50.942;4.028;2023-06-14T09:33:58;9.40;;;7.60;;
21243;SDS011;10780;50.942;4.028;2023-06-14T09:36:27;9.10;;;7.97;;
21243;SDS011;10780;50.942;4.028;2023-06-14T09:38:57;12.70;;;7.95;;
21243;SDS011;10780;50.942;4.028;2023-06-14T09:41:32;11.50;;;8.07;;
21243;SDS011;10780;50.942;4.028;2023-06-14T09:43:59;9.43;;;7.55;;
21243;SDS011;10780;50.942;4.028;2023-06-14T09:46:27;8.95;;;7.75;;
21243;SDS011;10780;50.942;4.028;2023-06-14T09:48:54;12.25;;;8.20;;
21243;SDS011;10780;50.942;4.028;2023-06-14T09:51:24;10.38;;;7.85;;
21243;SDS011;10780;50.942;4.028;2023-06-14T09:53:51;10.73;;;8.27;;
21243;SDS011;10780;50.942;4.028;2023-06-14T09:56:22;10.50;;;8.85;;
21243;SDS011;10780;50.942;4.028;2023-06-14T09:58:54;10.07;;;7.90;;
21243;SDS011;10780;50.942;4.028;2023-06-14T10:01:21;10.57;;;8.00;;
21243;SDS011;10780;50.942;4.028;2023-06-14T10:03:50;9.48;;;7.85;;
21243;SDS011;10780;50.942;4.028;2023-06-14T10:06:24;13.57;;;8.07;;
21243;SDS011;10780;50.942;4.028;2023-06-14T10:08:52;8.68;;;7.40;;
21243;SDS011;10780;50.942;4.028;2023-06-14T10:11:21;11.70;;;7.65;;
21243;SDS011;10780;50.942;4.028;2023-06-14T10:13:47;10.95;;;8.35;;
21243;SDS011;10780;50.942;4.028;2023-06-14T10:16:20;9.70;;;7.65;;
21243;SDS011;10780;50.942;4.028;2023-06-14T10:21:50;11.30;;;7.45;;
21243;SDS011;10780;50.942;4.028;2023-06-14T10:24:47;11.40;;;7.57;;
21243;SDS011;10780;50.942;4.028;2023-06-14T10:27:13;8.45;;;7.55;;
21243;SDS011;10780;50.942;4.028;2023-06-14T10:32:17;11.18;;;7.78;;
21243;SDS011;10780;50.942;4.028;2023-06-14T10:34:44;9.27;;;7.35;;
21243;SDS011;10780;50.942;4.028;2023-06-14T10:37:13;11.82;;;8.02;;
21243;SDS011;10780;50.942;4.028;2023-06-14T10:39:43;8.57;;;7.68;;
21243;SDS011;10780;50.942;4.028;2023-06-14T10:42:13;9.50;;;8.30;;
21243;SDS011;10780;50.942;4.028;2023-06-14T10:44:40;11.05;;;7.65;;
21243;SDS011;10780;50.942;4.028;2023-06-14T10:47:19;11.30;;;7.18;;
21243;SDS011;10780;50.942;4.028;2023-06-14T10:49:55;9.35;;;6.80;;
21243;SDS011;10780;50.942;4.028;2023-06-14T10:52:29;9.30;;;7.40;;
21243;SDS011;10780;50.942;4.028;2023-06-14T10:55:01;8.52;;;7.63;;
21243;SDS011;10780;50.942;4.028;2023-06-14T10:57:30;11.95;;;7.63;;
21243;SDS011;10780;50.942;4.028;2023-06-14T11:00:17;9.38;;;7.60;;
21243;SDS011;10780;50.942;4.028;2023-06-14T11:05:50;9.95;;;7.43;;
21243;SDS011;10780;50.942;4.028;2023-06-14T11:08:40;10.88;;;7.70;;
21243;SDS011;10780;50.942;4.028;2023-06-14T11:11:12;10.60;;;7.43;;
21243;SDS011;10780;50.942;4.028;2023-06-14T11:13:39;10.23;;;7.47;;
21243;SDS011;10780;50.942;4.028;2023-06-14T11:16:17;10.20;;;7.15;;
21243;SDS011;10780;50.942;4.028;2023-06-14T11:18:45;7.68;;;6.30;;
21243;SDS011;10780;50.942;4.028;2023-06-14T11:21:15;7.82;;;6.40;;
21243;SDS011;10780;50.942;4.028;2023-06-14T11:23:42;8.50;;;7.60;;
21243;SDS011;10780;50.942;4.028;2023-06-14T11:26:13;7.70;;;7.00;;
21243;SDS011;10780;50.942;4.028;2023-06-14T11:28:39;9.45;;;7.00;;
21243;SDS011;10780;50.942;4.028;2023-06-14T11:31:06;8.45;;;6.72;;
21243;SDS011;10780;50.942;4.028;2023-06-14T11:33:32;10.95;;;7.10;;
21243;SDS011;10780;50.942;4.028;2023-06-14T11:36:01;9.02;;;6.97;;
21243;SDS011;10780;50.942;4.028;2023-06-14T11:38:28;9.35;;;7.18;;
21243;SDS011;10780;50.942;4.028;2023-06-14T11:40:58;8.13;;;6.60;;
21243;SDS011;10780;50.942;4.028;2023-06-14T11:43:24;9.60;;;7.57;;
21243;SDS011;10780;50.942;4.028;2023-06-14T11:45:51;10.25;;;6.85;;
21243;SDS011;10780;50.942;4.028;2023-06-14T11:48:18;7.50;;;6.78;;
21243;SDS011;10780;50.942;4.028;2023-06-14T11:50:44;8.35;;;7.05;;
21243;SDS011;10780;50.942;4.028;2023-06-14T11:53:09;7.50;;;6.47;;
21243;SDS011;10780;50.942;4.028;2023-06-14T11:55:36;10.98;;;6.55;;
21243;SDS011;10780;50.942;4.028;2023-06-14T11:58:04;7.95;;;6.75;;
21243;SDS011;10780;50.942;4.028;2023-06-14T12:00:29;7.15;;;6.13;;
21243;SDS011;10780;50.942;4.028;2023-06-14T12:02:56;10.05;;;6.38;;
21243;SDS011;10780;50.942;4.028;2023-06-14T12:05:22;12.40;;;7.07;;
21243;SDS011;10780;50.942;4.028;2023-06-14T12:07:48;8.10;;;6.40;;
21243;SDS011;10780;50.942;4.028;2023-06-14T12:10:15;8.02;;;6.32;;
21243;SDS011;10780;50.942;4.028;2023-06-14T12:12:41;6.65;;;5.88;;
21243;SDS011;10780;50.942;4.028;2023-06-14T12:15:08;8.60;;;6.45;;
21243;SDS011;10780;50.942;4.028;2023-06-14T12:17:35;7.43;;;6.18;;
21243;SDS011;10780;50.942;4.028;2023-06-14T12:20:05;8.77;;;5.82;;
21243;SDS011;10780;50.942;4.028;2023-06-14T12:22:35;8.35;;;6.15;;
21243;SDS011;10780;50.942;4.028;2023-06-14T12:25:01;7.07;;;6.38;;
21243;SDS011;10780;50.942;4.028;2023-06-14T12:27:28;7.07;;;6.35;;
21243;SDS011;10780;50.942;4.028;2023-06-14T12:30:00;9.10;;;6.43;;
21243;SDS011;10780;50.942;4.028;2023-06-14T12:32:27;7.63;;;6.30;;
21243;SDS011;10780;50.942;4.028;2023-06-14T12:34:53;6.68;;;5.80;;
21243;SDS011;10780;50.942;4.028;2023-06-14T12:37:19;12.77;;;6.97;;
21243;SDS011;10780;50.942;4.028;2023-06-14T12:39:45;13.10;;;6.70;;
21243;SDS011;10780;50.942;4.028;2023-06-14T12:42:10;8.45;;;6.00;;
21243;SDS011;10780;50.942;4.028;2023-06-14T12:44:38;9.93;;;6.50;;
21243;SDS011;10780;50.942;4.028;2023-06-14T12:47:06;12.43;;;6.85;;
21243;SDS011;10780;50.942;4.028;2023-06-14T12:49:32;9.82;;;6.20;;
21243;SDS011;10780;50.942;4.028;2023-06-14T12:51:58;7.55;;;6.75;;
21243;SDS011;10780;50.942;4.028;2023-06-14T12:54:24;9.85;;;6.40;;
21243;SDS011;10780;50.942;4.028;2023-06-14T12:56:52;10.40;;;6.75;;
21243;SDS011;10780;50.942;4.028;2023-06-14T12:59:19;9.60;;;6.05;;
21243;SDS011;10780;50.942;4.028;2023-06-14T13:01:45;8.43;;;6.15;;
21243;SDS011;10780;50.942;4.028;2023-06-14T13:04:12;11.10;;;7.10;;
21243;SDS011;10780;50.942;4.028;2023-06-14T13:06:38;10.23;;;6.38;;
21243;SDS011;10780;50.942;4.028;2023-06-14T13:09:04;9.68;;;6.22;;
21243;SDS011;10780;50.942;4.028;2023-06-14T13:11:30;10.15;;;5.90;;
21243;SDS011;10780;50.942;4.028;2023-06-14T13:13:56;8.05;;;6.10;;
21243;SDS011;10780;50.942;4.028;2023-06-14T13:16:21;10.18;;;5.85;;
21243;SDS011;10780;50.942;4.028;2023-06-14T13:18:47;10.20;;;6.15;;
21243;SDS011;10780;50.942;4.028;2023-06-14T13:21:13;6.35;;;5.70;;
21243;SDS011;10780;50.942;4.028;2023-06-14T13:23:38;9.98;;;6.18;;
21243;SDS011;10780;50.942;4.028;2023-06-14T13:26:04;7.60;;;5.88;;
21243;SDS011;10780;50.942;4.028;2023-06-14T13:28:29;8.75;;;6.35;;
21243;SDS011;10780;50.942;4.028;2023-06-14T13:30:56;7.20;;;5.72;;
21243;SDS011;10780;50.942;4.028;2023-06-14T13:33:22;10.35;;;5.70;;
21243;SDS011;10780;50.942;4.028;2023-06-14T13:35:49;8.05;;;5.78;;
21243;SDS011;10780;50.942;4.028;2023-06-14T13:38:15;5.88;;;5.28;;
21243;SDS011;10780;50.942;4.028;2023-06-14T13:40:40;9.55;;;6.53;;
21243;SDS011;10780;50.942;4.028;2023-06-14T13:43:06;10.57;;;5.88;;
21243;SDS011;10780;50.942;4.028;2023-06-14T13:45:32;7.85;;;6.20;;
21243;SDS011;10780;50.942;4.028;2023-06-14T13:47:57;8.73;;;6.05;;
21243;SDS011;10780;50.942;4.028;2023-06-14T13:50:23;8.43;;;5.82;;
21243;SDS011;10780;50.942;4.028;2023-06-14T13:52:48;9.05;;;6.20;;
21243;SDS011;10780;50.942;4.028;2023-06-14T13:55:14;8.68;;;6.35;;
21243;SDS011;10780;50.942;4.028;2023-06-14T13:57:40;8.05;;;5.72;;
21243;SDS011;10780;50.942;4.028;2023-06-14T14:00:06;7.78;;;5.40;;
21243;SDS011;10780;50.942;4.028;2023-06-14T14:02:33;9.18;;;5.70;;
21243;SDS011;10780;50.942;4.028;2023-06-14T14:04:59;7.97;;;5.57;;
21243;SDS011;10780;50.942;4.028;2023-06-14T14:07:25;8.55;;;5.10;;
21243;SDS011;10780;50.942;4.028;2023-06-14T14:09:50;7.40;;;4.97;;
21243;SDS011;10780;50.942;4.028;2023-06-14T14:12:16;6.15;;;5.03;;
21243;SDS011;10780;50.942;4.028;2023-06-14T14:14:42;7.90;;;4.97;;
21243;SDS011;10780;50.942;4.028;2023-06-14T14:17:07;5.57;;;5.00;;
21243;SDS011;10780;50.942;4.028;2023-06-14T14:19:33;9.65;;;4.63;;
21243;SDS011;10780;50.942;4.028;2023-06-14T14:21:58;6.97;;;4.43;;
21243;SDS011;10780;50.942;4.028;2023-06-14T14:24:24;9.32;;;4.18;;
21243;SDS011;10780;50.942;4.028;2023-06-14T14:26:50;4.30;;;3.90;;
21243;SDS011;10780;50.942;4.028;2023-06-14T14:29:18;7.38;;;4.70;;
21243;SDS011;10780;50.942;4.028;2023-06-14T14:31:44;5.22;;;4.30;;
21243;SDS011;10780;50.942;4.028;2023-06-14T14:34:10;6.22;;;4.57;;
21243;SDS011;10780;50.942;4.028;2023-06-14T14:36:36;5.25;;;4.35;;
21243;SDS011;10780;50.942;4.028;2023-06-14T14:39:03;6.03;;;3.80;;
21243;SDS011;10780;50.942;4.028;2023-06-14T14:41:29;4.40;;;3.63;;
21243;SDS011;10780;50.942;4.028;2023-06-14T14:43:55;4.93;;;3.72;;
21243;SDS011;10780;50.942;4.028;2023-06-14T14:46:20;6.40;;;4.00;;